Time;durP1;ratioP1;P1;durP2;ratioP2;P2;SDS_P1;SDS_P2;PMS_P1;PMS_P2;Temp;Humidity;BMP_temperature;BMP_pressure;BME280_temperature;BME280_humidity;BME280_pressure;Samples;Min_cycle;Max_cycle;Signal;HPM_P1;HPM_P2
2021/07/25 00:00:42;;;;;;;18.80;12.95;;;512.70;2380.80;;;;;;4941619;29;20544;-85
2021/07/25 00:03:09;;;;;;;17.63;13.20;;;512.40;2380.80;;;;;;4941288;29;20023;-84
2021/07/25 00:05:35;;;;;;;20.42;13.63;;;512.60;2380.80;;;;;;4941407;29;20063;-83
2021/07/25 00:08:01;;;;;;;19.52;13.85;;;512.40;2380.80;;;;;;4941309;29;20066;-86
2021/07/25 00:10:27;;;;;;;19.23;15.73;;;512.70;2380.80;;;;;;4941811;29;20027;-84
2021/07/25 00:12:53;;;;;;;16.30;13.50;;;512.60;2380.80;;;;;;4941842;29;20034;-84
2021/07/25 00:15:20;;;;;;;16.02;12.75;;;512.50;2380.80;;;;;;4941211;29;20120;-83
2021/07/25 00:17:46;;;;;;;19.83;12.45;;;512.10;2380.80;;;;;;4940896;29;20186;-84
2021/07/25 00:20:13;;;;;;;16.83;13.50;;;512.30;2380.80;;;;;;4940858;29;20114;-83
2021/07/25 00:22:39;;;;;;;21.00;13.00;;;512.20;2380.80;;;;;;4940932;29;20024;-83
2021/07/25 00:25:09;;;;;;;17.88;13.18;;;512.40;2380.80;;;;;;4958062;29;20417;-84
2021/07/25 00:27:39;;;;;;;19.20;12.70;;;487.30;2380.80;;;;;;4940860;29;20035;-83
2021/07/25 00:30:15;;;;;;;18.15;13.38;;;487.30;2380.80;;;;;;4940751;29;20034;-85
2021/07/25 00:32:41;;;;;;;18.10;13.00;;;487.30;2380.80;;;;;;4940344;29;20505;-85
2021/07/25 00:35:08;;;;;;;17.33;13.43;;;487.10;2380.80;;;;;;4940998;29;20027;-84
2021/07/25 00:37:34;;;;;;;15.93;13.77;;;487.00;2380.80;;;;;;4940414;29;20043;-84
2021/07/25 00:40:00;;;;;;;18.85;13.48;;;487.20;2380.80;;;;;;4940768;29;20433;-84
2021/07/25 00:42:35;;;;;;;18.35;13.35;;;487.10;2380.80;;;;;;4940582;29;20055;-84
2021/07/25 00:45:01;;;;;;;19.80;14.05;;;486.90;2380.80;;;;;;4940897;29;20469;-84
2021/07/25 00:47:28;;;;;;;16.27;12.95;;;487.00;2380.80;;;;;;4940700;29;20035;-84
2021/07/25 00:49:54;;;;;;;15.52;13.48;;;487.00;2380.80;;;;;;4940678;29;20524;-84
2021/07/25 00:52:20;;;;;;;18.17;15.07;;;487.10;2380.80;;;;;;4940303;29;20123;-83
2021/07/25 00:54:45;;;;;;;19.73;14.60;;;487.10;2380.80;;;;;;4957654;29;20113;-85
2021/07/25 00:57:11;;;;;;;25.85;13.88;;;487.00;2380.80;;;;;;4940476;29;20130;-84
2021/07/25 00:59:37;;;;;;;17.35;12.98;;;486.90;2380.80;;;;;;4957362;28;20064;-84
2021/07/25 01:02:03;;;;;;;18.02;13.90;;;487.00;2380.80;;;;;;4940460;29;20034;-85
2021/07/25 01:04:53;;;;;;;17.55;12.65;;;486.70;2380.80;;;;;;4940291;29;20050;-84
2021/07/25 01:07:54;;;;;;;17.15;13.55;;;486.60;2380.80;;;;;;4940516;29;20042;-85
2021/07/25 01:10:27;;;;;;;18.85;13.13;;;486.70;2380.80;;;;;;4927089;29;20066;-86
2021/07/25 01:12:57;;;;;;;;;;;486.60;2380.80;;;;;;4940493;29;20031;-84
2021/07/25 01:15:26;;;;;;;19.92;13.15;;;486.40;2380.80;;;;;;4940168;29;19921;-85
2021/07/25 01:17:55;;;;;;;15.60;12.23;;;461.70;2380.80;;;;;;4940050;29;20389;-85
2021/07/25 01:20:22;;;;;;;19.73;13.85;;;486.40;2380.80;;;;;;4939902;29;20035;-87
2021/07/25 01:22:51;;;;;;;16.80;13.40;;;486.40;2380.80;;;;;;4940174;29;20047;-86
2021/07/25 01:25:18;;;;;;;17.27;13.65;;;461.70;2380.80;;;;;;4939663;29;20109;-87
2021/07/25 01:27:58;;;;;;;16.60;12.10;;;486.40;2380.80;;;;;;4936054;29;20027;-86
2021/07/25 01:30:31;;;;;;;16.08;12.65;;;461.70;2380.80;;;;;;4940174;29;20448;-87
2021/07/25 01:33:03;;;;;;;20.45;12.65;;;486.40;2380.80;;;;;;4939724;29;20028;-86
2021/07/25 01:35:30;;;;;;;16.95;14.02;;;486.50;2380.80;;;;;;4940083;29;20023;-87
2021/07/25 01:37:57;;;;;;;17.50;13.50;;;461.70;2380.80;;;;;;4939882;29;20051;-85
2021/07/25 01:40:24;;;;;;;18.30;14.18;;;461.30;2380.80;;;;;;4939851;29;20059;-86
2021/07/25 01:42:54;;;;;;;20.00;13.68;;;486.40;2380.80;;;;;;4939681;29;20082;-84
2021/07/25 02:05:39;;;;;;;15.25;13.65;;;461.50;2380.80;;;;;;5112318;27;20387;-87
2021/07/25 02:08:05;;;;;;;16.83;13.43;;;461.70;2380.80;;;;;;5145692;27;20476;-87
2021/07/25 02:10:31;;;;;;;18.02;14.40;;;461.60;2380.80;;;;;;5111309;28;20086;-88
2021/07/25 02:12:57;;;;;;;18.45;13.48;;;461.70;2380.80;;;;;;5111166;28;20024;-88
2021/07/25 02:15:23;;;;;;;15.25;13.05;;;461.70;2380.80;;;;;;5145744;27;20081;-88
2021/07/25 02:17:48;;;;;;;24.35;14.50;;;461.70;2380.80;;;;;;5145133;27;20024;-87
2021/07/25 02:20:14;;;;;;;15.30;13.02;;;461.50;2380.80;;;;;;5145577;27;20425;-88
2021/07/25 02:22:40;;;;;;;16.67;13.43;;;461.40;2380.80;;;;;;5145445;27;20024;-88
2021/07/25 02:25:06;;;;;;;16.58;13.23;;;461.60;2380.80;;;;;;5147163;27;20016;-86
2021/07/25 02:27:32;;;;;;;17.83;12.13;;;461.70;2380.80;;;;;;5112946;28;20028;-87
2021/07/25 02:29:58;;;;;;;16.40;12.73;;;461.50;2380.80;;;;;;5146484;27;20028;-87
2021/07/25 02:32:24;;;;;;;20.55;13.88;;;461.40;2380.80;;;;;;5145404;27;20089;-87
2021/07/25 02:34:49;;;;;;;22.33;14.40;;;461.20;2380.80;;;;;;5145242;27;20030;-88
2021/07/25 02:37:15;;;;;;;17.10;13.90;;;460.90;2380.80;;;;;;5145036;27;20465;-88
2021/07/25 02:39:41;;;;;;;18.35;14.13;;;461.10;2380.80;;;;;;5145138;27;20056;-89
2021/07/25 02:42:08;;;;;;;18.63;14.10;;;461.10;2380.80;;;;;;5110685;28;20073;-88
2021/07/25 02:44:34;;;;;;;17.67;12.70;;;461.00;2380.80;;;;;;5144799;27;20119;-88
2021/07/25 02:47:00;;;;;;;19.13;15.48;;;461.10;2380.80;;;;;;5144949;27;20089;-89
2021/07/25 02:49:25;;;;;;;16.80;12.82;;;461.20;2380.80;;;;;;5144907;27;20464;-87
2021/07/25 02:51:51;;;;;;;20.05;13.93;;;461.20;2380.80;;;;;;5144652;27;20488;-87
2021/07/25 02:54:17;;;;;;;18.80;13.77;;;461.10;2380.80;;;;;;5144487;27;20024;-88
2021/07/25 02:56:43;;;;;;;17.77;13.80;;;460.90;2380.80;;;;;;5144551;27;20032;-88
2021/07/25 02:59:09;;;;;;;17.55;13.38;;;460.80;2380.80;;;;;;5112066;28;20023;-87
2021/07/25 03:01:35;;;;;;;17.23;14.10;;;460.90;2380.80;;;;;;5151318;27;20030;-88
2021/07/25 03:04:01;;;;;;;19.08;13.68;;;460.90;2380.80;;;;;;5152487;27;20066;-87
2021/07/25 03:06:27;;;;;;;20.02;14.20;;;460.90;2380.80;;;;;;5138982;27;20024;-87
2021/07/25 03:08:53;;;;;;;17.50;14.45;;;461.00;2380.80;;;;;;5103006;28;20071;-89
2021/07/25 03:11:21;;;;;;;23.17;14.75;;;460.90;2380.80;;;;;;5137698;27;20423;-88
2021/07/25 03:13:47;;;;;;;16.75;13.35;;;460.80;2380.80;;;;;;5138305;27;20055;-89
2021/07/25 03:16:13;;;;;;;17.00;13.65;;;460.90;2380.80;;;;;;5103441;28;20043;-87
2021/07/25 03:18:39;;;;;;;17.98;14.38;;;460.80;2380.80;;;;;;5137565;27;20032;-88
2021/07/25 03:21:09;;;;;;;16.88;13.27;;;460.80;2380.80;;;;;;5137957;27;20074;-87
2021/07/25 03:23:35;;;;;;;19.20;13.80;;;460.80;2380.80;;;;;;5138584;27;20475;-87
2021/07/25 03:26:01;;;;;;;18.27;13.57;;;460.80;2380.80;;;;;;5137840;27;20106;-88
2021/07/25 03:28:27;;;;;;;21.02;15.13;;;460.80;2380.80;;;;;;5132646;27;20020;-88
2021/07/25 03:30:53;;;;;;;17.20;13.23;;;460.80;2380.80;;;;;;5079783;28;20063;-89
2021/07/25 03:33:19;;;;;;;18.65;14.93;;;461.00;2380.80;;;;;;5130651;27;20048;-89
2021/07/25 03:35:46;;;;;;;19.30;14.70;;;461.00;2380.80;;;;;;5130554;27;20089;-88
2021/07/25 03:38:12;;;;;;;19.13;14.30;;;460.80;2380.80;;;;;;5096167;28;20021;-88
2021/07/25 03:40:41;;;;;;;17.40;14.57;;;460.90;2380.80;;;;;;5130585;27;20077;-87
2021/07/25 03:43:07;;;;;;;29.13;17.42;;;461.00;2380.80;;;;;;5129894;27;20393;-88
2021/07/25 03:45:33;;;;;;;20.27;15.20;;;436.10;2355.20;;;;;;5130315;27;20024;-88
2021/07/25 03:47:59;;;;;;;22.65;16.15;;;436.10;2355.20;;;;;;5130127;27;20357;-89
2021/07/25 03:50:25;;;;;;;21.33;14.88;;;436.00;2355.20;;;;;;5095355;28;20043;-87
2021/07/25 03:52:51;;;;;;;18.92;14.85;;;436.10;2355.20;;;;;;5129437;27;20035;-87
2021/07/25 03:55:17;;;;;;;19.35;13.85;;;436.10;2355.20;;;;;;5129334;27;20028;-88
2021/07/25 03:57:44;;;;;;;31.42;16.85;;;460.80;2380.80;;;;;;5129593;27;20024;-88
2021/07/25 04:00:10;;;;;;;18.13;14.60;;;460.90;2380.80;;;;;;5095312;28;20055;-88
2021/07/25 04:02:36;;;;;;;17.15;14.15;;;461.00;2380.80;;;;;;5095434;28;20016;-88
2021/07/25 04:05:03;;;;;;;22.52;14.50;;;461.10;2380.80;;;;;;5129499;27;20047;-88
2021/07/25 04:07:28;;;;;;;21.55;14.30;;;461.20;2380.80;;;;;;5095131;28;20115;-89
2021/07/25 04:09:54;;;;;;;20.05;14.50;;;461.20;2380.80;;;;;;5129190;27;20048;-87
2021/07/25 04:12:20;;;;;;;17.55;14.18;;;461.20;2380.80;;;;;;5129271;27;20476;-89
2021/07/25 04:14:46;;;;;;;19.58;15.27;;;461.10;2380.80;;;;;;5129424;27;20036;-89
2021/07/25 04:17:12;;;;;;;18.73;15.02;;;460.90;2380.80;;;;;;5128511;27;20024;-88
2021/07/25 04:19:37;;;;;;;24.67;16.25;;;460.80;2380.80;;;;;;5129333;27;20097;-87
2021/07/25 04:22:03;;;;;;;22.75;15.18;;;460.80;2380.80;;;;;;5129429;27;20031;-88
2021/07/25 04:24:29;;;;;;;19.85;14.95;;;460.80;2380.80;;;;;;5128850;27;20043;-88
2021/07/25 04:26:55;;;;;;;19.50;15.23;;;461.00;2380.80;;;;;;5095216;28;20512;-87
2021/07/25 04:29:21;;;;;;;22.30;15.55;;;461.10;2380.80;;;;;;5128972;27;20084;-88
2021/07/25 04:31:47;;;;;;;18.80;15.02;;;461.20;2380.80;;;;;;5094956;28;20024;-88
2021/07/25 04:34:14;;;;;;;22.02;14.57;;;461.30;2380.80;;;;;;5128905;27;20546;-86
2021/07/25 04:36:42;;;;;;;19.52;14.85;;;461.00;2380.80;;;;;;5094893;28;20114;-87
2021/07/25 04:39:09;;;;;;;19.70;14.80;;;461.00;2380.80;;;;;;5094899;28;20020;-89
2021/07/25 04:41:44;;;;;;;23.70;15.55;;;461.10;2380.80;;;;;;5094851;28;20047;-85
2021/07/25 04:44:29;;;;;;;20.35;15.63;;;460.90;2380.80;;;;;;5094950;28;20042;-88
2021/07/25 04:46:56;;;;;;;22.98;16.50;;;460.80;2380.80;;;;;;5095010;28;20110;-87
2021/07/25 04:49:31;;;;;;;21.83;15.23;;;461.00;2380.80;;;;;;5094715;28;20032;-88
2021/07/25 04:51:57;;;;;;;23.55;16.60;;;461.20;2380.80;;;;;;5094672;28;20020;-88
2021/07/25 04:54:25;;;;;;;18.85;15.40;;;461.20;2380.80;;;;;;5128473;27;20400;-87
2021/07/25 04:56:56;;;;;;;24.80;16.30;;;461.30;2380.80;;;;;;5094605;28;20063;-88
2021/07/25 04:59:34;;;;;;;19.57;15.77;;;461.30;2380.80;;;;;;5094942;28;20382;-87
2021/07/25 05:02:04;;;;;;;19.95;15.55;;;461.20;2380.80;;;;;;5095178;28;20024;-90
2021/07/25 05:04:30;;;;;;;23.73;15.20;;;461.20;2380.80;;;;;;5094861;28;20139;-88
2021/07/25 05:06:57;;;;;;;17.48;13.90;;;461.30;2380.80;;;;;;5094130;28;20059;-88
2021/07/25 05:09:24;;;;;;;19.10;15.15;;;461.50;2380.80;;;;;;5094427;28;20028;-88
2021/07/25 05:12:10;;;;;;;17.05;14.07;;;461.70;2380.80;;;;;;5094084;28;20020;-88
2021/07/25 05:14:39;;;;;;;17.80;15.18;;;461.60;2380.80;;;;;;5094094;28;20109;-87
2021/07/25 05:17:22;;;;;;;20.08;14.90;;;461.70;2380.80;;;;;;5094219;28;20031;-88
2021/07/25 05:20:06;;;;;;;16.52;13.73;;;461.70;2380.80;;;;;;5094325;28;20020;-88
2021/07/25 05:23:00;;;;;;;20.65;14.60;;;486.40;2380.80;;;;;;5094449;28;20032;-87
2021/07/25 05:25:29;;;;;;;20.15;13.55;;;461.70;2380.80;;;;;;5094361;28;20028;-89
2021/07/25 05:27:56;;;;;;;17.55;13.10;;;486.40;2380.80;;;;;;5093898;28;20032;-90
2021/07/25 05:30:23;;;;;;;18.13;13.65;;;486.50;2380.80;;;;;;5094750;28;20502;-86
2021/07/25 05:32:50;;;;;;;16.52;13.40;;;486.50;2380.80;;;;;;5094862;28;20493;-89
2021/07/25 05:35:17;;;;;;;15.68;13.38;;;486.50;2380.80;;;;;;5094308;28;20112;-88
2021/07/25 05:37:43;;;;;;;24.23;14.60;;;486.60;2380.80;;;;;;5094154;28;20035;-87
2021/07/25 05:40:12;;;;;;;17.27;13.02;;;486.70;2380.80;;;;;;5095099;28;20028;-88
2021/07/25 05:42:39;;;;;;;15.88;13.10;;;486.80;2380.80;;;;;;5095128;28;20020;-86
2021/07/25 05:45:10;;;;;;;14.95;12.90;;;486.80;2380.80;;;;;;5094766;28;20063;-88
2021/07/25 05:47:37;;;;;;;15.02;13.43;;;486.80;2380.80;;;;;;5094737;28;20552;-88
2021/07/25 05:50:04;;;;;;;15.68;13.07;;;486.90;2380.80;;;;;;5094617;28;20038;-87
2021/07/25 05:52:52;;;;;;;19.25;13.77;;;487.00;2380.80;;;;;;5104743;28;20099;-87
2021/07/25 05:55:23;;;;;;;18.30;12.57;;;487.10;2380.80;;;;;;5118244;28;20031;-87
2021/07/25 05:57:49;;;;;;;22.92;14.60;;;487.10;2380.80;;;;;;5118178;28;20015;-88
2021/07/25 06:00:15;;;;;;;18.52;13.00;;;487.20;2380.80;;;;;;5118051;28;20008;-86
2021/07/25 06:03:02;;;;;;;17.92;13.35;;;487.30;2380.80;;;;;;5117944;28;20008;-84
2021/07/25 06:05:30;;;;;;;16.83;13.35;;;512.10;2380.80;;;;;;5115986;28;20044;-84
2021/07/25 06:07:58;;;;;;;17.08;14.15;;;512.10;2380.80;;;;;;5099128;28;20028;-84
2021/07/25 06:10:27;;;;;;;17.73;13.38;;;512.40;2380.80;;;;;;5099404;28;20491;-85
2021/07/25 06:12:56;;;;;;;17.83;13.75;;;512.50;2380.80;;;;;;5099474;28;20408;-85
2021/07/25 06:15:23;;;;;;;19.80;14.18;;;512.80;2380.80;;;;;;5099516;28;20031;-84
2021/07/25 06:17:49;;;;;;;14.35;12.02;;;512.90;2380.80;;;;;;5099709;28;20024;-83
2021/07/25 06:20:15;;;;;;;15.52;12.18;;;512.70;2380.80;;;;;;5098338;28;20028;-86
2021/07/25 06:22:49;;;;;;;13.45;12.02;;;537.70;2406.40;;;;;;5127422;28;20032;-85
2021/07/25 06:25:20;;;;;;;17.25;13.43;;;537.90;2406.40;;;;;;5093549;28;20024;-84
2021/07/25 06:27:47;;;;;;;14.38;12.80;;;538.00;2406.40;;;;;;5093448;28;20119;-86
2021/07/25 06:30:13;;;;;;;16.00;12.50;;;538.10;2406.40;;;;;;5093422;28;20091;-85
2021/07/25 06:33:04;;;;;;;13.30;11.27;;;538.20;2406.40;;;;;;5092731;28;20035;-85
2021/07/25 06:35:31;;;;;;;15.70;13.32;;;538.40;2406.40;;;;;;5092890;28;20032;-83
2021/07/25 06:38:03;;;;;;;18.30;12.90;;;538.50;2406.40;;;;;;5092944;28;20031;-84
2021/07/25 06:40:30;;;;;;;14.07;12.20;;;563.20;2432.00;;;;;;5094664;28;20020;-83
2021/07/25 06:42:57;;;;;;;20.70;14.32;;;538.50;2406.40;;;;;;5098814;28;20336;-83
2021/07/25 06:45:24;;;;;;;14.77;12.70;;;563.40;2432.00;;;;;;5100252;28;20028;-86
2021/07/25 06:47:51;;;;;;;15.20;12.55;;;563.50;2432.00;;;;;;5098017;28;20066;-87
2021/07/25 06:50:18;;;;;;;18.00;12.13;;;563.60;2432.00;;;;;;5096063;28;20024;-84
2021/07/25 06:52:44;;;;;;;16.85;12.50;;;563.60;2432.00;;;;;;5096652;28;20035;-85
2021/07/25 06:55:11;;;;;;;16.13;12.55;;;563.70;2432.00;;;;;;5130404;27;20036;-83
2021/07/25 06:57:37;;;;;;;17.67;12.15;;;563.90;2432.00;;;;;;5097549;28;20016;-83
2021/07/25 07:00:04;;;;;;;14.23;11.77;;;564.10;2432.00;;;;;;5130218;27;20035;-84
2021/07/25 07:02:47;;;;;;;17.55;12.55;;;564.00;2432.00;;;;;;5095697;28;20024;-84
2021/07/25 07:05:14;;;;;;;15.07;12.80;;;588.80;2432.00;;;;;;5095502;28;20048;-83
2021/07/25 07:07:40;;;;;;;16.27;12.60;;;589.00;2432.00;;;;;;5096178;28;20357;-83
2021/07/25 07:10:06;;;;;;;15.60;13.35;;;589.20;2432.00;;;;;;5130260;27;20031;-82
2021/07/25 07:12:35;;;;;;;16.77;12.75;;;589.40;2432.00;;;;;;5096385;28;20020;-84
2021/07/25 07:15:05;;;;;;;12.23;11.02;;;589.50;2432.00;;;;;;5095799;28;20461;-83
2021/07/25 07:17:31;;;;;;;22.13;14.70;;;589.70;2432.00;;;;;;5095693;28;20024;-83
2021/07/25 07:19:57;;;;;;;42.95;14.82;;;614.40;2432.00;;;;;;5130092;27;20077;-83
2021/07/25 07:22:30;;;;;;;23.15;12.43;;;614.50;2432.00;;;;;;5130142;27;20077;-83
2021/07/25 07:24:57;;;;;;;19.27;12.35;;;614.70;2432.00;;;;;;5096122;28;20081;-84
2021/07/25 07:27:24;;;;;;;20.05;12.02;;;614.80;2432.00;;;;;;5097363;28;20036;-85
2021/07/25 07:29:54;;;;;;;16.00;10.85;;;614.90;2432.00;;;;;;5095737;28;20031;-85
2021/07/25 07:32:20;;;;;;;13.50;10.43;;;614.90;2432.00;;;;;;5096208;28;20457;-85
2021/07/25 07:34:46;;;;;;;14.35;11.65;;;615.00;2432.00;;;;;;5095802;28;20042;-84
2021/07/25 07:37:12;;;;;;;15.10;13.52;;;614.90;2432.00;;;;;;5129876;27;20028;-84
2021/07/25 07:39:42;;;;;;;13.45;11.77;;;615.10;2432.00;;;;;;5129767;27;20428;-85
2021/07/25 07:42:09;;;;;;;13.73;12.30;;;615.20;2432.00;;;;;;5095709;28;20032;-85
2021/07/25 07:44:37;;;;;;;15.20;11.30;;;615.20;2432.00;;;;;;5095732;28;20066;-83
2021/07/25 07:47:03;;;;;;;13.85;11.13;;;615.30;2432.00;;;;;;5095634;28;20024;-84
2021/07/25 07:49:29;;;;;;;11.50;10.30;;;640.10;2432.00;;;;;;5095566;28;20377;-84
2021/07/25 07:51:55;;;;;;;11.32;9.38;;;640.20;2432.00;;;;;;5129541;27;20024;-84
2021/07/25 07:54:21;;;;;;;14.05;10.05;;;640.20;2432.00;;;;;;5095187;28;20028;-82
2021/07/25 07:56:47;;;;;;;16.70;10.77;;;640.20;2432.00;;;;;;5095035;28;20485;-82
2021/07/25 07:59:13;;;;;;;12.38;10.30;;;640.40;2432.00;;;;;;5094842;28;20110;-82
2021/07/25 08:01:39;;;;;;;12.20;9.73;;;640.40;2432.00;;;;;;5128944;27;20028;-85
2021/07/25 08:04:04;;;;;;;16.25;9.82;;;640.50;2432.00;;;;;;5129039;27;20048;-81
2021/07/25 08:06:30;;;;;;;13.10;9.63;;;640.80;2432.00;;;;;;5129081;27;20062;-82
2021/07/25 08:08:56;;;;;;;14.02;10.60;;;640.90;2432.00;;;;;;5129155;27;20118;-82
2021/07/25 08:11:22;;;;;;;11.45;10.27;;;640.90;2432.00;;;;;;5128474;27;20118;-82
2021/07/25 08:13:48;;;;;;;12.93;9.52;;;640.90;2432.00;;;;;;5128570;27;20028;-82
2021/07/25 08:16:14;;;;;;;10.95;9.52;;;640.90;2432.00;;;;;;5094076;28;20034;-82
2021/07/25 08:18:39;;;;;;;12.65;10.77;;;665.60;2432.00;;;;;;5128832;27;20025;-85
2021/07/25 08:21:06;;;;;;;14.90;10.07;;;665.80;2432.00;;;;;;5129149;27;20052;-80
2021/07/25 08:23:33;;;;;;;10.63;9.50;;;666.00;2432.00;;;;;;5128481;27;20119;-80
2021/07/25 08:25:59;;;;;;;12.20;10.27;;;666.30;2432.00;;;;;;5095204;28;20063;-79
2021/07/25 08:28:26;;;;;;;12.73;9.75;;;666.20;2432.00;;;;;;5094199;28;20031;-80
2021/07/25 08:30:51;;;;;;;12.75;9.95;;;666.00;2432.00;;;;;;5094614;28;20020;-80
2021/07/25 08:33:17;;;;;;;13.18;8.68;;;666.30;2432.00;;;;;;5094187;28;20102;-82
2021/07/25 08:35:43;;;;;;;11.85;9.13;;;666.50;2432.00;;;;;;5128182;27;20042;-80
2021/07/25 08:38:09;;;;;;;10.30;8.82;;;666.30;2432.00;;;;;;5128146;27;20024;-81
2021/07/25 08:40:35;;;;;;;12.00;9.85;;;666.30;2432.00;;;;;;5094835;28;20035;-80
2021/07/25 08:43:12;;;;;;;10.52;8.10;;;691.20;2432.00;;;;;;5127852;27;20329;-81
2021/07/25 08:45:44;;;;;;;10.93;8.93;;;691.40;2432.00;;;;;;5093902;28;20027;-80
2021/07/25 08:48:17;;;;;;;;;;;691.70;2432.00;;;;;;5093787;28;20494;-80
2021/07/25 08:51:10;;;;;;;10.32;8.32;;;692.10;2432.00;;;;;;5093673;28;19957;-80
2021/07/25 08:53:41;;;;;;;14.43;9.48;;;716.90;2432.00;;;;;;5087936;28;20140;-82
2021/07/25 08:56:10;;;;;;;12.50;8.68;;;717.20;2432.00;;;;;;5092164;28;20465;-81
2021/07/25 08:58:43;;;;;;;9.15;7.63;;;717.50;2432.00;;;;;;5092028;28;20031;-81
2021/07/25 09:01:12;;;;;;;8.50;7.57;;;717.60;2432.00;;;;;;5092912;28;20488;-81
2021/07/25 09:03:38;;;;;;;11.98;8.95;;;717.50;2406.40;;;;;;5092429;28;20052;-80
2021/07/25 09:06:04;;;;;;;11.70;7.85;;;717.70;2406.40;;;;;;5093337;28;20028;-81
2021/07/25 09:08:30;;;;;;;12.02;8.60;;;742.40;2406.40;;;;;;5127103;27;20094;-79
2021/07/25 09:10:59;;;;;;;11.50;7.78;;;742.50;2355.20;;;;;;5127377;27;20031;-81
2021/07/25 09:13:25;;;;;;;11.52;9.00;;;742.50;2380.80;;;;;;5093115;28;20122;-80
2021/07/25 09:15:50;;;;;;;9.60;7.95;;;742.70;2329.60;;;;;;5126934;27;20115;-80
2021/07/25 09:18:16;;;;;;;12.48;9.30;;;742.90;2304.00;;;;;;5094144;28;20020;-79
2021/07/25 09:20:43;;;;;;;10.63;8.77;;;743.00;2278.40;;;;;;5127185;27;20055;-81
2021/07/25 09:23:20;;;;;;;10.05;7.10;;;743.20;2278.40;;;;;;5127173;27;20353;-80
2021/07/25 09:25:55;;;;;;;12.73;9.82;;;743.10;2227.20;;;;;;5094627;28;20030;-80
2021/07/25 09:28:22;;;;;;;13.70;8.35;;;743.30;2201.60;;;;;;5110082;27;20123;-80
2021/07/25 09:30:48;;;;;;;10.48;7.45;;;768.10;2201.60;;;;;;5092458;28;20028;-81
2021/07/25 09:33:44;;;;;;;9.77;6.93;;;768.20;2124.80;;;;;;5126618;27;20077;-81
2021/07/25 09:36:15;;;;;;;12.10;8.95;;;768.40;2099.20;;;;;;5090769;28;20031;-80
2021/07/25 09:38:43;;;;;;;10.98;8.35;;;768.50;2124.80;;;;;;5093270;28;20028;-80
2021/07/25 09:41:26;;;;;;;14.73;11.65;;;768.60;2124.80;;;;;;5093175;28;20472;-82
2021/07/25 09:44:08;;;;;;;10.60;6.80;;;768.70;2048.00;;;;;;5092569;28;20472;-82
2021/07/25 09:46:45;;;;;;;8.18;6.88;;;793.70;2099.20;;;;;;5092792;28;20028;-81
2021/07/25 09:49:11;;;;;;;11.63;7.35;;;793.80;2048.00;;;;;;5092692;28;20465;-81
2021/07/25 09:51:37;;;;;;;12.20;9.50;;;793.90;1996.80;;;;;;5126383;27;20024;-82
2021/07/25 09:54:03;;;;;;;10.48;7.70;;;794.00;1996.80;;;;;;5092650;28;20093;-81
2021/07/25 09:56:29;;;;;;;10.82;8.10;;;794.20;1996.80;;;;;;5127919;28;20024;-81
2021/07/25 09:58:58;;;;;;;14.23;8.38;;;794.50;1945.60;;;;;;5128181;28;20428;-79
2021/07/25 10:01:39;;;;;;;15.27;13.55;;;794.50;1920.00;;;;;;5093224;28;20388;-79
2021/07/25 10:04:17;;;;;;;9.23;7.72;;;819.30;1920.00;;;;;;5092216;28;20083;-81
2021/07/25 10:06:48;;;;;;;10.38;7.85;;;819.30;1868.80;;;;;;5095272;28;20373;-80
2021/07/25 10:09:24;;;;;;;9.77;7.68;;;819.30;1843.20;;;;;;5095969;28;20096;-81
2021/07/25 10:11:53;;;;;;;10.80;8.27;;;819.40;1843.20;;;;;;5092290;28;20024;-79
2021/07/25 10:14:20;;;;;;;9.85;8.80;;;819.60;1817.60;;;;;;5092505;28;20032;-81
2021/07/25 10:16:55;;;;;;;10.07;8.98;;;819.80;1843.20;;;;;;5096159;28;20077;-80
2021/07/25 10:19:41;;;;;;;11.07;9.38;;;819.90;1817.60;;;;;;5096554;28;20024;-81
2021/07/25 10:22:09;;;;;;;9.38;7.50;;;819.90;1766.40;;;;;;5096665;28;20024;-81
2021/07/25 10:24:37;;;;;;;10.65;9.00;;;844.80;1766.40;;;;;;5096410;28;20031;-82
2021/07/25 10:27:04;;;;;;;10.57;9.02;;;844.90;1766.40;;;;;;5096477;28;20028;-81
2021/07/25 10:29:30;;;;;;;12.27;9.30;;;844.90;1740.80;;;;;;5096271;28;20035;-82
2021/07/25 10:31:56;;;;;;;11.07;8.60;;;845.20;1715.20;;;;;;5130506;27;20024;-81
2021/07/25 10:34:22;;;;;;;10.63;7.93;;;845.70;1664.00;;;;;;5096296;28;20058;-80
2021/07/25 10:36:53;;;;;;;10.70;7.78;;;845.30;1638.40;;;;;;5096352;28;20051;-80
2021/07/25 10:39:20;;;;;;;11.18;8.15;;;845.20;1689.60;;;;;;5095978;28;20461;-78
2021/07/25 10:41:51;;;;;;;10.73;7.97;;;845.40;1664.00;;;;;;5095994;28;20032;-79
2021/07/25 10:44:18;;;;;;;12.35;8.00;;;845.60;1664.00;;;;;;5096328;28;20032;-79
2021/07/25 10:46:44;;;;;;;10.77;7.30;;;845.70;1638.40;;;;;;5096008;28;20176;-83
2021/07/25 10:49:15;;;;;;;10.60;8.07;;;845.70;1612.80;;;;;;5096662;28;20028;-83
2021/07/25 10:51:58;;;;;;;13.95;11.10;;;870.40;1587.20;;;;;;5096592;28;20027;-82
2021/07/25 10:54:24;;;;;;;19.17;17.25;;;845.70;1587.20;;;;;;5097022;28;20040;-83
2021/07/25 10:57:00;;;;;;;18.58;15.45;;;870.40;1612.80;;;;;;5096214;28;20016;-82
2021/07/25 10:59:52;;;;;;;19.45;13.75;;;870.60;1536.00;;;;;;5096328;28;20024;-81
2021/07/25 11:02:21;;;;;;;19.40;17.40;;;870.70;1561.60;;;;;;5096631;28;20125;-82
2021/07/25 11:04:56;;;;;;;12.63;8.80;;;870.80;1536.00;;;;;;5098190;28;20044;-81
2021/07/25 11:07:25;;;;;;;13.07;10.63;;;870.70;1510.40;;;;;;5100173;28;20482;-81
2021/07/25 11:10:05;;;;;;;17.00;15.10;;;870.90;1510.40;;;;;;5097956;28;20028;-82
2021/07/25 11:12:54;;;;;;;13.73;12.32;;;871.10;1510.40;;;;;;5097634;28;20039;-84
2021/07/25 11:15:32;;;;;;;15.32;12.88;;;871.00;1484.80;;;;;;5097182;28;20051;-83
2021/07/25 11:18:09;;;;;;;12.95;9.43;;;871.20;1510.40;;;;;;5096235;28;20020;-82
2021/07/25 11:20:51;;;;;;;13.15;10.32;;;871.30;1484.80;;;;;;5095949;28;20032;-83
2021/07/25 11:23:19;;;;;;;13.35;11.27;;;896.00;1484.80;;;;;;5097109;28;20024;-83
2021/07/25 11:25:47;;;;;;;11.95;10.40;;;896.20;1459.20;;;;;;5095948;28;20476;-83
2021/07/25 11:28:39;;;;;;;10.15;9.15;;;896.30;1459.20;;;;;;5095842;28;20028;-82
2021/07/25 11:31:06;;;;;;;13.38;9.15;;;896.30;1459.20;;;;;;5095540;28;20071;-79
2021/07/25 11:33:38;;;;;;;13.88;8.65;;;896.50;1433.60;;;;;;5095182;28;20418;-81
2021/07/25 11:36:08;;;;;;;14.50;8.68;;;896.50;1433.60;;;;;;5095996;28;20020;-81
2021/07/25 11:38:38;;;;;;;10.13;9.13;;;896.70;1433.60;;;;;;5094400;28;20088;-80
2021/07/25 11:41:06;;;;;;;13.02;11.73;;;896.80;1382.40;;;;;;5094976;28;20020;-80
2021/07/25 11:44:10;;;;;;;14.27;10.57;;;896.90;1433.60;;;;;;5094770;28;20500;-80
2021/07/25 11:46:45;;;;;;;14.23;9.85;;;921.60;1459.20;;;;;;5017159;28;20117;-80
2021/07/25 11:49:18;;;;;;;11.45;10.02;;;896.90;1382.40;;;;;;5016914;28;20449;-81
2021/07/25 11:51:46;;;;;;;14.57;12.55;;;896.90;1382.40;;;;;;5060171;28;20040;-81
2021/07/25 11:54:13;;;;;;;11.02;9.90;;;921.80;1433.60;;;;;;5095913;28;20391;-83
2021/07/25 11:57:01;;;;;;;12.77;11.45;;;922.00;1408.00;;;;;;5095317;28;20411;-82
2021/07/25 11:59:29;;;;;;;10.13;8.90;;;921.80;1382.40;;;;;;5081270;28;20027;-82
2021/07/25 12:01:55;;;;;;;12.13;10.00;;;921.80;1356.80;;;;;;5094797;28;20029;-81
2021/07/25 12:04:26;;;;;;;9.60;8.70;;;922.00;1382.40;;;;;;5094332;28;20136;-82
2021/07/25 12:07:00;;;;;;;9.73;8.73;;;922.00;1331.20;;;;;;5095958;28;20031;-81
2021/07/25 12:09:26;;;;;;;12.80;10.70;;;922.00;1356.80;;;;;;5094928;28;20128;-81
2021/07/25 12:12:10;;;;;;;11.52;8.95;;;922.20;1382.40;;;;;;5094350;28;20107;-81
2021/07/25 12:14:40;;;;;;;9.30;7.72;;;922.20;1331.20;;;;;;5094271;28;20036;-81
2021/07/25 12:17:06;;;;;;;8.85;7.45;;;922.20;1305.60;;;;;;5094439;28;20495;-82
2021/07/25 12:19:43;;;;;;;13.32;10.10;;;922.30;1305.60;;;;;;5095421;28;20072;-82
2021/07/25 12:22:15;;;;;;;10.77;9.30;;;922.20;1331.20;;;;;;5096147;28;20024;-81
2021/07/25 12:24:43;;;;;;;9.52;8.50;;;922.20;1305.60;;;;;;5095013;28;20054;-81
2021/07/25 12:27:34;;;;;;;12.68;11.07;;;922.40;1305.60;;;;;;5095745;28;20056;-80
2021/07/25 12:30:10;;;;;;;11.10;9.98;;;922.50;1331.20;;;;;;5094194;28;20124;-82
2021/07/25 12:32:37;;;;;;;10.70;9.30;;;922.50;1305.60;;;;;;5094971;28;20077;-82
2021/07/25 12:35:09;;;;;;;9.43;8.52;;;922.00;1280.00;;;;;;5094875;28;20043;-82